sensor_id;sensor_type;location;lat;lon;timestamp;temperature;humidity
17879;DHT22;9065;51.050;13.758;2022-10-28T00:02:11;14.20;99.90
17879;DHT22;9065;51.050;13.758;2022-10-28T00:04:42;14.30;99.90
17879;DHT22;9065;51.050;13.758;2022-10-28T00:07:09;14.30;99.90
17879;DHT22;9065;51.050;13.758;2022-10-28T00:09:36;14.30;99.90
17879;DHT22;9065;51.050;13.758;2022-10-28T00:12:03;14.30;99.90
17879;DHT22;9065;51.050;13.758;2022-10-28T00:14:31;14.30;99.90
17879;DHT22;9065;51.050;13.758;2022-10-28T00:16:59;14.30;99.90
17879;DHT22;9065;51.050;13.758;2022-10-28T00:19:26;14.30;99.90
17879;DHT22;9065;51.050;13.758;2022-10-28T00:21:54;14.30;99.90
17879;DHT22;9065;51.050;13.758;2022-10-28T00:24:22;14.40;99.90
17879;DHT22;9065;51.050;13.758;2022-10-28T00:26:48;14.40;99.90
17879;DHT22;9065;51.050;13.758;2022-10-28T00:29:17;14.40;99.90
17879;DHT22;9065;51.050;13.758;2022-10-28T00:31:46;14.40;99.90
17879;DHT22;9065;51.050;13.758;2022-10-28T00:34:15;14.40;99.90
17879;DHT22;9065;51.050;13.758;2022-10-28T00:36:44;14.40;99.90
17879;DHT22;9065;51.050;13.758;2022-10-28T00:39:14;14.40;99.90
17879;DHT22;9065;51.050;13.758;2022-10-28T00:41:43;14.40;99.90
17879;DHT22;9065;51.050;13.758;2022-10-28T00:47:19;14.40;99.90
17879;DHT22;9065;51.050;13.758;2022-10-28T00:49:50;14.40;99.90
17879;DHT22;9065;51.050;13.758;2022-10-28T00:52:21;14.50;99.90
17879;DHT22;9065;51.050;13.758;2022-10-28T00:54:51;14.40;99.90
17879;DHT22;9065;51.050;13.758;2022-10-28T00:57:21;14.50;99.90
17879;DHT22;9065;51.050;13.758;2022-10-28T00:59:51;14.50;99.90
17879;DHT22;9065;51.050;13.758;2022-10-28T01:02:19;14.50;99.90
17879;DHT22;9065;51.050;13.758;2022-10-28T01:04:46;14.50;99.90
17879;DHT22;9065;51.050;13.758;2022-10-28T01:07:19;14.50;99.90
17879;DHT22;9065;51.050;13.758;2022-10-28T01:09:46;14.60;99.90
17879;DHT22;9065;51.050;13.758;2022-10-28T01:12:19;14.60;99.90
17879;DHT22;9065;51.050;13.758;2022-10-28T01:14:58;14.50;99.90
17879;DHT22;9065;51.050;13.758;2022-10-28T01:17:53;14.60;99.90
17879;DHT22;9065;51.050;13.758;2022-10-28T01:21:05;14.60;99.90
17879;DHT22;9065;51.050;13.758;2022-10-28T01:23:47;14.60;99.90
17879;DHT22;9065;51.050;13.758;2022-10-28T01:26:44;14.60;99.90
17879;DHT22;9065;51.050;13.758;2022-10-28T01:29:48;14.70;99.90
17879;DHT22;9065;51.050;13.758;2022-10-28T01:32:29;14.70;99.90
17879;DHT22;9065;51.050;13.758;2022-10-28T01:35:05;14.70;99.90
17879;DHT22;9065;51.050;13.758;2022-10-28T01:37:37;14.70;99.90
17879;DHT22;9065;51.050;13.758;2022-10-28T01:40:09;14.70;99.90
17879;DHT22;9065;51.050;13.758;2022-10-28T01:42:39;14.70;99.90
17879;DHT22;9065;51.050;13.758;2022-10-28T01:45:14;14.70;99.90
17879;DHT22;9065;51.050;13.758;2022-10-28T01:47:48;14.70;99.90
17879;DHT22;9065;51.050;13.758;2022-10-28T01:50:25;14.70;99.90
17879;DHT22;9065;51.050;13.758;2022-10-28T01:52:57;14.70;99.90
17879;DHT22;9065;51.050;13.758;2022-10-28T01:55:25;14.70;99.90
17879;DHT22;9065;51.050;13.758;2022-10-28T01:57:55;14.70;99.90
17879;DHT22;9065;51.050;13.758;2022-10-28T02:00:23;14.70;99.90
17879;DHT22;9065;51.050;13.758;2022-10-28T02:02:54;14.70;99.90
17879;DHT22;9065;51.050;13.758;2022-10-28T02:05:40;14.70;99.90
17879;DHT22;9065;51.050;13.758;2022-10-28T02:08:20;14.70;99.90
17879;DHT22;9065;51.050;13.758;2022-10-28T02:11:02;14.70;99.90
17879;DHT22;9065;51.050;13.758;2022-10-28T02:16:29;14.80;99.90
17879;DHT22;9065;51.050;13.758;2022-10-28T02:19:04;14.80;99.90
17879;DHT22;9065;51.050;13.758;2022-10-28T02:21:44;14.80;99.90
17879;DHT22;9065;51.050;13.758;2022-10-28T02:24:18;14.80;99.90
17879;DHT22;9065;51.050;13.758;2022-10-28T02:26:52;14.80;99.90
17879;DHT22;9065;51.050;13.758;2022-10-28T02:29:28;14.80;99.90
17879;DHT22;9065;51.050;13.758;2022-10-28T02:32:01;14.80;99.90
17879;DHT22;9065;51.050;13.758;2022-10-28T02:34:35;14.80;99.90
17879;DHT22;9065;51.050;13.758;2022-10-28T02:37:10;14.80;99.90
17879;DHT22;9065;51.050;13.758;2022-10-28T02:39:40;14.80;99.90
17879;DHT22;9065;51.050;13.758;2022-10-28T02:42:11;14.70;99.90
17879;DHT22;9065;51.050;13.758;2022-10-28T02:44:42;14.70;99.90
17879;DHT22;9065;51.050;13.758;2022-10-28T02:47:13;14.70;99.90
17879;DHT22;9065;51.050;13.758;2022-10-28T02:49:46;14.70;99.90
17879;DHT22;9065;51.050;13.758;2022-10-28T02:52:18;14.70;99.90
17879;DHT22;9065;51.050;13.758;2022-10-28T02:54:52;14.70;99.90
17879;DHT22;9065;51.050;13.758;2022-10-28T02:57:21;14.70;99.90
17879;DHT22;9065;51.050;13.758;2022-10-28T02:59:55;14.70;99.90
17879;DHT22;9065;51.050;13.758;2022-10-28T03:02:24;14.70;99.90
17879;DHT22;9065;51.050;13.758;2022-10-28T03:04:53;14.70;99.90
17879;DHT22;9065;51.050;13.758;2022-10-28T03:07:21;14.70;99.90
17879;DHT22;9065;51.050;13.758;2022-10-28T03:09:50;14.70;99.90
17879;DHT22;9065;51.050;13.758;2022-10-28T03:12:17;14.70;99.90
17879;DHT22;9065;51.050;13.758;2022-10-28T03:14:45;14.70;99.90
17879;DHT22;9065;51.050;13.758;2022-10-28T03:17:14;14.70;99.90
17879;DHT22;9065;51.050;13.758;2022-10-28T03:19:40;14.70;99.90
17879;DHT22;9065;51.050;13.758;2022-10-28T03:22:08;14.60;99.90
17879;DHT22;9065;51.050;13.758;2022-10-28T03:24:35;14.60;99.90
17879;DHT22;9065;51.050;13.758;2022-10-28T03:27:02;14.60;99.90
17879;DHT22;9065;51.050;13.758;2022-10-28T03:29:30;14.70;99.90
17879;DHT22;9065;51.050;13.758;2022-10-28T03:31:58;14.70;99.90
17879;DHT22;9065;51.050;13.758;2022-10-28T03:34:29;14.70;99.90
17879;DHT22;9065;51.050;13.758;2022-10-28T03:36:56;14.70;99.90
17879;DHT22;9065;51.050;13.758;2022-10-28T03:39:25;14.70;99.90
17879;DHT22;9065;51.050;13.758;2022-10-28T03:41:52;14.70;99.90
17879;DHT22;9065;51.050;13.758;2022-10-28T03:44:19;14.70;99.90
17879;DHT22;9065;51.050;13.758;2022-10-28T03:46:47;14.60;99.90
17879;DHT22;9065;51.050;13.758;2022-10-28T03:49:13;14.60;99.90
17879;DHT22;9065;51.050;13.758;2022-10-28T03:51:40;14.60;99.90
17879;DHT22;9065;51.050;13.758;2022-10-28T03:54:13;14.60;99.90
17879;DHT22;9065;51.050;13.758;2022-10-28T03:56:41;14.60;99.90
17879;DHT22;9065;51.050;13.758;2022-10-28T03:59:08;14.50;99.90
17879;DHT22;9065;51.050;13.758;2022-10-28T04:01:36;14.50;99.90
17879;DHT22;9065;51.050;13.758;2022-10-28T04:04:03;14.50;99.90
17879;DHT22;9065;51.050;13.758;2022-10-28T04:06:32;14.50;99.90
17879;DHT22;9065;51.050;13.758;2022-10-28T04:08:58;14.50;99.90
17879;DHT22;9065;51.050;13.758;2022-10-28T04:11:25;14.50;99.90
17879;DHT22;9065;51.050;13.758;2022-10-28T04:13:53;14.50;99.90
17879;DHT22;9065;51.050;13.758;2022-10-28T04:16:20;14.40;99.90
17879;DHT22;9065;51.050;13.758;2022-10-28T04:18:47;14.40;99.90
17879;DHT22;9065;51.050;13.758;2022-10-28T04:21:19;14.40;99.90
17879;DHT22;9065;51.050;13.758;2022-10-28T04:23:46;14.40;99.90
17879;DHT22;9065;51.050;13.758;2022-10-28T04:26:13;14.40;99.90
17879;DHT22;9065;51.050;13.758;2022-10-28T04:28:40;14.40;99.90
17879;DHT22;9065;51.050;13.758;2022-10-28T04:31:08;14.40;99.90
17879;DHT22;9065;51.050;13.758;2022-10-28T04:33:36;14.40;99.90
17879;DHT22;9065;51.050;13.758;2022-10-28T04:36:03;14.40;99.90
17879;DHT22;9065;51.050;13.758;2022-10-28T04:38:30;14.40;99.90
17879;DHT22;9065;51.050;13.758;2022-10-28T04:40:57;14.40;99.90
17879;DHT22;9065;51.050;13.758;2022-10-28T04:43:24;14.40;99.90
17879;DHT22;9065;51.050;13.758;2022-10-28T04:45:51;14.40;99.90
17879;DHT22;9065;51.050;13.758;2022-10-28T04:48:19;14.40;99.90
17879;DHT22;9065;51.050;13.758;2022-10-28T04:50:50;14.30;99.90
17879;DHT22;9065;51.050;13.758;2022-10-28T04:53:17;14.30;99.90
17879;DHT22;9065;51.050;13.758;2022-10-28T04:55:45;14.30;99.90
17879;DHT22;9065;51.050;13.758;2022-10-28T04:58:12;14.30;99.90
17879;DHT22;9065;51.050;13.758;2022-10-28T05:00:38;14.30;99.90
17879;DHT22;9065;51.050;13.758;2022-10-28T05:03:06;14.30;99.90
17879;DHT22;9065;51.050;13.758;2022-10-28T05:05:34;14.30;99.90
17879;DHT22;9065;51.050;13.758;2022-10-28T05:08:01;14.30;99.90
17879;DHT22;9065;51.050;13.758;2022-10-28T05:10:28;14.20;99.90
17879;DHT22;9065;51.050;13.758;2022-10-28T05:12:55;14.20;99.90
17879;DHT22;9065;51.050;13.758;2022-10-28T05:15:22;14.20;99.90
17879;DHT22;9065;51.050;13.758;2022-10-28T05:17:51;14.20;99.90
17879;DHT22;9065;51.050;13.758;2022-10-28T05:20:19;14.20;99.90
17879;DHT22;9065;51.050;13.758;2022-10-28T05:22:50;14.20;99.90
17879;DHT22;9065;51.050;13.758;2022-10-28T05:25:19;14.20;99.90
17879;DHT22;9065;51.050;13.758;2022-10-28T05:27:48;14.20;99.90
17879;DHT22;9065;51.050;13.758;2022-10-28T05:30:15;14.20;99.90
17879;DHT22;9065;51.050;13.758;2022-10-28T05:32:42;14.20;99.90
17879;DHT22;9065;51.050;13.758;2022-10-28T05:35:09;14.20;99.90
17879;DHT22;9065;51.050;13.758;2022-10-28T05:37:36;14.10;99.90
17879;DHT22;9065;51.050;13.758;2022-10-28T05:40:05;14.10;99.90
17879;DHT22;9065;51.050;13.758;2022-10-28T05:42:39;14.20;99.90
17879;DHT22;9065;51.050;13.758;2022-10-28T05:45:06;14.10;99.90
17879;DHT22;9065;51.050;13.758;2022-10-28T05:47:33;14.10;99.90
17879;DHT22;9065;51.050;13.758;2022-10-28T05:50:01;14.10;99.90
17879;DHT22;9065;51.050;13.758;2022-10-28T05:52:28;14.10;99.90
17879;DHT22;9065;51.050;13.758;2022-10-28T05:54:54;14.10;99.90
17879;DHT22;9065;51.050;13.758;2022-10-28T05:57:29;14.10;99.90
17879;DHT22;9065;51.050;13.758;2022-10-28T05:59:58;14.10;99.90
17879;DHT22;9065;51.050;13.758;2022-10-28T06:02:25;14.00;99.90
17879;DHT22;9065;51.050;13.758;2022-10-28T06:04:53;14.00;99.90
17879;DHT22;9065;51.050;13.758;2022-10-28T06:07:19;14.10;99.90
17879;DHT22;9065;51.050;13.758;2022-10-28T06:09:46;14.00;99.90
17879;DHT22;9065;51.050;13.758;2022-10-28T06:12:15;14.10;99.90
17879;DHT22;9065;51.050;13.758;2022-10-28T06:14:44;14.10;99.90
17879;DHT22;9065;51.050;13.758;2022-10-28T06:17:11;14.00;99.90
17879;DHT22;9065;51.050;13.758;2022-10-28T06:19:40;14.00;99.90
17879;DHT22;9065;51.050;13.758;2022-10-28T06:22:08;14.00;99.90
17879;DHT22;9065;51.050;13.758;2022-10-28T06:24:36;14.00;99.90
17879;DHT22;9065;51.050;13.758;2022-10-28T06:27:04;14.10;99.90
17879;DHT22;9065;51.050;13.758;2022-10-28T06:29:31;14.10;99.90
17879;DHT22;9065;51.050;13.758;2022-10-28T06:31:59;14.10;99.90
17879;DHT22;9065;51.050;13.758;2022-10-28T06:34:27;14.10;99.90
17879;DHT22;9065;51.050;13.758;2022-10-28T06:36:55;14.10;99.90
17879;DHT22;9065;51.050;13.758;2022-10-28T06:39:22;14.10;99.90
17879;DHT22;9065;51.050;13.758;2022-10-28T06:41:49;14.10;99.90
17879;DHT22;9065;51.050;13.758;2022-10-28T06:44:17;14.20;99.90
17879;DHT22;9065;51.050;13.758;2022-10-28T06:46:44;14.20;99.90
17879;DHT22;9065;51.050;13.758;2022-10-28T06:49:12;14.20;99.90
17879;DHT22;9065;51.050;13.758;2022-10-28T06:51:45;14.20;99.90
17879;DHT22;9065;51.050;13.758;2022-10-28T06:54:14;14.20;99.90
17879;DHT22;9065;51.050;13.758;2022-10-28T06:56:41;14.30;99.90
17879;DHT22;9065;51.050;13.758;2022-10-28T06:59:09;14.30;99.90
17879;DHT22;9065;51.050;13.758;2022-10-28T07:01:36;14.30;99.90
17879;DHT22;9065;51.050;13.758;2022-10-28T07:04:03;14.40;99.90
17879;DHT22;9065;51.050;13.758;2022-10-28T07:06:32;14.40;99.90
17879;DHT22;9065;51.050;13.758;2022-10-28T07:08:59;14.50;99.90
17879;DHT22;9065;51.050;13.758;2022-10-28T07:11:26;14.50;99.90
17879;DHT22;9065;51.050;13.758;2022-10-28T07:13:53;14.60;99.90
17879;DHT22;9065;51.050;13.758;2022-10-28T07:16:24;14.60;99.90
17879;DHT22;9065;51.050;13.758;2022-10-28T07:18:56;14.70;99.90
17879;DHT22;9065;51.050;13.758;2022-10-28T07:21:23;14.80;99.90
17879;DHT22;9065;51.050;13.758;2022-10-28T07:23:54;14.80;99.90
17879;DHT22;9065;51.050;13.758;2022-10-28T07:26:21;14.90;99.90
17879;DHT22;9065;51.050;13.758;2022-10-28T07:28:48;15.00;99.90
17879;DHT22;9065;51.050;13.758;2022-10-28T07:31:16;15.10;99.90
17879;DHT22;9065;51.050;13.758;2022-10-28T07:33:42;15.10;99.90
17879;DHT22;9065;51.050;13.758;2022-10-28T07:36:09;15.20;99.90
17879;DHT22;9065;51.050;13.758;2022-10-28T07:38:36;15.20;99.90
17879;DHT22;9065;51.050;13.758;2022-10-28T07:41:10;15.30;99.90
17879;DHT22;9065;51.050;13.758;2022-10-28T07:43:37;15.40;99.90
17879;DHT22;9065;51.050;13.758;2022-10-28T07:46:06;15.40;99.90
17879;DHT22;9065;51.050;13.758;2022-10-28T07:48:34;15.60;99.90
17879;DHT22;9065;51.050;13.758;2022-10-28T07:51:03;15.60;99.90
17879;DHT22;9065;51.050;13.758;2022-10-28T07:53:31;15.70;99.90
17879;DHT22;9065;51.050;13.758;2022-10-28T07:56:01;15.80;99.90
17879;DHT22;9065;51.050;13.758;2022-10-28T07:58:29;15.80;99.90
17879;DHT22;9065;51.050;13.758;2022-10-28T08:01:01;15.90;99.90
17879;DHT22;9065;51.050;13.758;2022-10-28T08:03:27;15.90;99.90
17879;DHT22;9065;51.050;13.758;2022-10-28T08:05:58;16.00;99.90
17879;DHT22;9065;51.050;13.758;2022-10-28T08:08:26;16.10;99.90
17879;DHT22;9065;51.050;13.758;2022-10-28T08:10:53;16.20;99.90
17879;DHT22;9065;51.050;13.758;2022-10-28T08:13:20;16.30;99.90
17879;DHT22;9065;51.050;13.758;2022-10-28T08:15:53;16.20;99.90
17879;DHT22;9065;51.050;13.758;2022-10-28T08:18:21;16.20;99.90
17879;DHT22;9065;51.050;13.758;2022-10-28T08:20:48;16.20;99.90
17879;DHT22;9065;51.050;13.758;2022-10-28T08:23:15;16.20;99.90
17879;DHT22;9065;51.050;13.758;2022-10-28T08:25:48;16.30;99.90
17879;DHT22;9065;51.050;13.758;2022-10-28T08:28:15;16.40;99.90
17879;DHT22;9065;51.050;13.758;2022-10-28T08:30:42;16.50;99.90
17879;DHT22;9065;51.050;13.758;2022-10-28T08:33:12;16.60;99.90
17879;DHT22;9065;51.050;13.758;2022-10-28T08:35:39;16.60;99.90
17879;DHT22;9065;51.050;13.758;2022-10-28T08:38:06;16.70;99.90
17879;DHT22;9065;51.050;13.758;2022-10-28T08:40:39;16.70;99.90
17879;DHT22;9065;51.050;13.758;2022-10-28T08:43:16;16.70;99.90
17879;DHT22;9065;51.050;13.758;2022-10-28T08:45:52;16.70;99.90
17879;DHT22;9065;51.050;13.758;2022-10-28T08:48:26;16.90;99.90
17879;DHT22;9065;51.050;13.758;2022-10-28T08:51:02;16.90;99.90
17879;DHT22;9065;51.050;13.758;2022-10-28T08:53:36;16.90;99.90
17879;DHT22;9065;51.050;13.758;2022-10-28T08:56:15;17.00;99.90
17879;DHT22;9065;51.050;13.758;2022-10-28T08:58:46;17.00;99.90
17879;DHT22;9065;51.050;13.758;2022-10-28T09:01:18;17.00;99.90
17879;DHT22;9065;51.050;13.758;2022-10-28T09:03:53;17.00;99.90
17879;DHT22;9065;51.050;13.758;2022-10-28T09:06:20;17.00;99.90
17879;DHT22;9065;51.050;13.758;2022-10-28T09:08:48;16.90;99.90
17879;DHT22;9065;51.050;13.758;2022-10-28T09:11:47;16.90;99.90
17879;DHT22;9065;51.050;13.758;2022-10-28T09:14:36;17.00;99.90
17879;DHT22;9065;51.050;13.758;2022-10-28T09:17:15;17.10;99.90
17879;DHT22;9065;51.050;13.758;2022-10-28T09:19:48;17.10;99.90
17879;DHT22;9065;51.050;13.758;2022-10-28T09:22:21;17.20;99.90
17879;DHT22;9065;51.050;13.758;2022-10-28T09:24:54;17.20;99.90
17879;DHT22;9065;51.050;13.758;2022-10-28T09:27:37;17.20;99.90
17879;DHT22;9065;51.050;13.758;2022-10-28T09:30:25;17.30;99.90
17879;DHT22;9065;51.050;13.758;2022-10-28T09:33:03;17.40;99.90
17879;DHT22;9065;51.050;13.758;2022-10-28T09:35:40;17.60;99.90
17879;DHT22;9065;51.050;13.758;2022-10-28T09:38:17;17.80;99.90
17879;DHT22;9065;51.050;13.758;2022-10-28T09:40:51;18.00;99.90
17879;DHT22;9065;51.050;13.758;2022-10-28T09:43:29;18.20;99.90
17879;DHT22;9065;51.050;13.758;2022-10-28T09:46:02;18.30;99.90
17879;DHT22;9065;51.050;13.758;2022-10-28T09:48:32;18.30;99.90
17879;DHT22;9065;51.050;13.758;2022-10-28T09:51:01;18.30;99.90
17879;DHT22;9065;51.050;13.758;2022-10-28T09:53:35;18.30;99.90
17879;DHT22;9065;51.050;13.758;2022-10-28T09:56:15;18.40;99.90
17879;DHT22;9065;51.050;13.758;2022-10-28T09:58:47;18.30;99.90
17879;DHT22;9065;51.050;13.758;2022-10-28T10:01:16;18.20;99.90
17879;DHT22;9065;51.050;13.758;2022-10-28T10:03:51;18.10;99.90
17879;DHT22;9065;51.050;13.758;2022-10-28T10:06:27;18.20;99.90
17879;DHT22;9065;51.050;13.758;2022-10-28T10:08:55;18.20;99.90
17879;DHT22;9065;51.050;13.758;2022-10-28T10:11:27;18.10;99.90
17879;DHT22;9065;51.050;13.758;2022-10-28T10:13:57;18.00;99.90
17879;DHT22;9065;51.050;13.758;2022-10-28T10:16:34;18.10;99.90
17879;DHT22;9065;51.050;13.758;2022-10-28T10:19:06;18.40;99.90
17879;DHT22;9065;51.050;13.758;2022-10-28T10:21:44;19.20;99.90
17879;DHT22;9065;51.050;13.758;2022-10-28T10:24:38;19.90;99.90
17879;DHT22;9065;51.050;13.758;2022-10-28T10:27:16;20.40;99.90
17879;DHT22;9065;51.050;13.758;2022-10-28T10:29:44;20.20;99.90
17879;DHT22;9065;51.050;13.758;2022-10-28T10:32:16;19.80;99.90
17879;DHT22;9065;51.050;13.758;2022-10-28T10:34:46;19.40;99.90
17879;DHT22;9065;51.050;13.758;2022-10-28T10:37:20;19.40;99.90
17879;DHT22;9065;51.050;13.758;2022-10-28T10:40:03;20.00;99.90
17879;DHT22;9065;51.050;13.758;2022-10-28T10:42:30;20.60;99.90
17879;DHT22;9065;51.050;13.758;2022-10-28T10:45:00;20.60;99.90
17879;DHT22;9065;51.050;13.758;2022-10-28T10:47:28;20.40;99.90
17879;DHT22;9065;51.050;13.758;2022-10-28T10:50:19;20.50;99.90
17879;DHT22;9065;51.050;13.758;2022-10-28T10:52:50;20.00;99.90
17879;DHT22;9065;51.050;13.758;2022-10-28T10:55:26;19.60;99.90
17879;DHT22;9065;51.050;13.758;2022-10-28T10:57:57;19.60;99.90
17879;DHT22;9065;51.050;13.758;2022-10-28T11:00:29;19.90;99.90
17879;DHT22;9065;51.050;13.758;2022-10-28T11:02:59;21.50;99.90
17879;DHT22;9065;51.050;13.758;2022-10-28T11:05:27;22.10;99.90
17879;DHT22;9065;51.050;13.758;2022-10-28T11:07:57;21.90;99.90
17879;DHT22;9065;51.050;13.758;2022-10-28T11:10:32;22.00;99.90
17879;DHT22;9065;51.050;13.758;2022-10-28T11:13:03;21.70;99.90
17879;DHT22;9065;51.050;13.758;2022-10-28T11:15:31;21.00;99.90
17879;DHT22;9065;51.050;13.758;2022-10-28T11:18:13;20.30;99.90
17879;DHT22;9065;51.050;13.758;2022-10-28T11:20:49;20.00;99.90
17879;DHT22;9065;51.050;13.758;2022-10-28T11:23:32;19.50;99.90
17879;DHT22;9065;51.050;13.758;2022-10-28T11:26:04;19.20;99.90
17879;DHT22;9065;51.050;13.758;2022-10-28T11:28:58;18.90;99.90
17879;DHT22;9065;51.050;13.758;2022-10-28T11:37:36;18.20;99.90
17879;DHT22;9065;51.050;13.758;2022-10-28T11:40:18;18.30;99.90
17879;DHT22;9065;51.050;13.758;2022-10-28T11:43:09;18.40;99.90
17879;DHT22;9065;51.050;13.758;2022-10-28T11:45:43;18.20;99.90
17879;DHT22;9065;51.050;13.758;2022-10-28T11:48:22;18.30;99.90
17879;DHT22;9065;51.050;13.758;2022-10-28T11:50:58;18.40;99.90
17879;DHT22;9065;51.050;13.758;2022-10-28T11:53:52;18.50;99.90
17879;DHT22;9065;51.050;13.758;2022-10-28T11:56:31;18.70;99.90
17879;DHT22;9065;51.050;13.758;2022-10-28T12:02:05;18.80;99.90
17879;DHT22;9065;51.050;13.758;2022-10-28T12:04:46;18.70;99.90
17879;DHT22;9065;51.050;13.758;2022-10-28T12:10:30;18.90;99.90
17879;DHT22;9065;51.050;13.758;2022-10-28T12:13:08;19.00;99.90
17879;DHT22;9065;51.050;13.758;2022-10-28T12:15:44;19.10;99.90
17879;DHT22;9065;51.050;13.758;2022-10-28T12:18:20;19.00;99.90
17879;DHT22;9065;51.050;13.758;2022-10-28T12:20:54;19.10;99.90
17879;DHT22;9065;51.050;13.758;2022-10-28T12:23:23;19.10;99.90
17879;DHT22;9065;51.050;13.758;2022-10-28T12:25:53;19.10;99.90
17879;DHT22;9065;51.050;13.758;2022-10-28T12:28:26;19.00;99.90
17879;DHT22;9065;51.050;13.758;2022-10-28T12:30:54;19.00;99.90
17879;DHT22;9065;51.050;13.758;2022-10-28T12:33:24;18.90;99.90
17879;DHT22;9065;51.050;13.758;2022-10-28T12:35:54;18.90;99.90
17879;DHT22;9065;51.050;13.758;2022-10-28T12:38:25;18.90;99.90
17879;DHT22;9065;51.050;13.758;2022-10-28T12:41:01;18.90;99.90
17879;DHT22;9065;51.050;13.758;2022-10-28T12:43:39;18.90;99.90
17879;DHT22;9065;51.050;13.758;2022-10-28T12:46:15;18.90;99.90
17879;DHT22;9065;51.050;13.758;2022-10-28T12:48:48;18.80;99.90
17879;DHT22;9065;51.050;13.758;2022-10-28T12:51:24;18.80;99.90
17879;DHT22;9065;51.050;13.758;2022-10-28T12:53:57;18.80;99.90
17879;DHT22;9065;51.050;13.758;2022-10-28T12:56:36;18.80;99.90
17879;DHT22;9065;51.050;13.758;2022-10-28T12:59:10;18.80;99.90
17879;DHT22;9065;51.050;13.758;2022-10-28T13:01:40;18.70;99.90
17879;DHT22;9065;51.050;13.758;2022-10-28T13:04:10;18.70;99.90
17879;DHT22;9065;51.050;13.758;2022-10-28T13:07:00;18.70;99.90
17879;DHT22;9065;51.050;13.758;2022-10-28T13:09:49;18.60;99.90
17879;DHT22;9065;51.050;13.758;2022-10-28T13:15:49;18.60;99.90
17879;DHT22;9065;51.050;13.758;2022-10-28T13:18:40;18.60;99.90
17879;DHT22;9065;51.050;13.758;2022-10-28T13:21:18;18.50;99.90
17879;DHT22;9065;51.050;13.758;2022-10-28T13:23:53;18.60;99.90
17879;DHT22;9065;51.050;13.758;2022-10-28T13:26:25;18.50;99.90
17879;DHT22;9065;51.050;13.758;2022-10-28T13:28:55;18.60;99.90
17879;DHT22;9065;51.050;13.758;2022-10-28T13:31:35;18.50;99.90
17879;DHT22;9065;51.050;13.758;2022-10-28T13:34:04;18.50;99.90
17879;DHT22;9065;51.050;13.758;2022-10-28T13:36:35;18.40;99.90
17879;DHT22;9065;51.050;13.758;2022-10-28T13:39:05;18.50;99.90
17879;DHT22;9065;51.050;13.758;2022-10-28T13:41:34;18.50;99.90
17879;DHT22;9065;51.050;13.758;2022-10-28T13:44:26;18.50;99.90
17879;DHT22;9065;51.050;13.758;2022-10-28T13:47:23;18.50;99.90
17879;DHT22;9065;51.050;13.758;2022-10-28T13:50:13;18.50;99.90
17879;DHT22;9065;51.050;13.758;2022-10-28T13:52:42;18.50;99.90
17879;DHT22;9065;51.050;13.758;2022-10-28T13:55:24;18.60;99.90
17879;DHT22;9065;51.050;13.758;2022-10-28T13:57:59;18.60;99.90
17879;DHT22;9065;51.050;13.758;2022-10-28T14:00:35;18.60;99.90
17879;DHT22;9065;51.050;13.758;2022-10-28T14:03:04;18.60;99.90
17879;DHT22;9065;51.050;13.758;2022-10-28T14:05:53;18.50;99.90
17879;DHT22;9065;51.050;13.758;2022-10-28T14:08:25;18.50;99.90
17879;DHT22;9065;51.050;13.758;2022-10-28T14:10:58;18.50;99.90
17879;DHT22;9065;51.050;13.758;2022-10-28T14:13:26;18.40;99.90
17879;DHT22;9065;51.050;13.758;2022-10-28T14:16:14;18.30;99.90
17879;DHT22;9065;51.050;13.758;2022-10-28T14:18:52;18.20;99.90
17879;DHT22;9065;51.050;13.758;2022-10-28T14:21:20;18.20;99.90
17879;DHT22;9065;51.050;13.758;2022-10-28T14:24:08;18.10;99.90
17879;DHT22;9065;51.050;13.758;2022-10-28T14:30:17;18.00;99.90
17879;DHT22;9065;51.050;13.758;2022-10-28T14:35:40;17.90;99.90
17879;DHT22;9065;51.050;13.758;2022-10-28T14:38:37;17.80;99.90
17879;DHT22;9065;51.050;13.758;2022-10-28T14:41:35;17.80;99.90
17879;DHT22;9065;51.050;13.758;2022-10-28T14:44:13;17.70;99.90
17879;DHT22;9065;51.050;13.758;2022-10-28T14:46:54;17.60;99.90
17879;DHT22;9065;51.050;13.758;2022-10-28T14:49:26;17.60;99.90
17879;DHT22;9065;51.050;13.758;2022-10-28T14:51:57;17.50;99.90
17879;DHT22;9065;51.050;13.758;2022-10-28T14:54:34;17.50;99.90
17879;DHT22;9065;51.050;13.758;2022-10-28T14:57:03;17.40;99.90
17879;DHT22;9065;51.050;13.758;2022-10-28T14:59:36;17.40;99.90
17879;DHT22;9065;51.050;13.758;2022-10-28T15:02:10;17.30;99.90
17879;DHT22;9065;51.050;13.758;2022-10-28T15:04:38;17.30;99.90
17879;DHT22;9065;51.050;13.758;2022-10-28T15:07:11;17.30;99.90
17879;DHT22;9065;51.050;13.758;2022-10-28T15:09:38;17.20;99.90
17879;DHT22;9065;51.050;13.758;2022-10-28T15:12:10;17.20;99.90
17879;DHT22;9065;51.050;13.758;2022-10-28T15:14:38;17.20;99.90
17879;DHT22;9065;51.050;13.758;2022-10-28T15:17:12;17.20;99.90
17879;DHT22;9065;51.050;13.758;2022-10-28T15:19:39;17.20;99.90
17879;DHT22;9065;51.050;13.758;2022-10-28T15:22:12;17.20;99.90
17879;DHT22;9065;51.050;13.758;2022-10-28T15:24:39;17.10;99.90
17879;DHT22;9065;51.050;13.758;2022-10-28T15:27:10;17.10;99.90
17879;DHT22;9065;51.050;13.758;2022-10-28T15:29:37;17.20;99.90
17879;DHT22;9065;51.050;13.758;2022-10-28T15:32:13;17.20;99.90
17879;DHT22;9065;51.050;13.758;2022-10-28T15:34:41;17.20;99.90
17879;DHT22;9065;51.050;13.758;2022-10-28T15:37:14;17.20;99.90
17879;DHT22;9065;51.050;13.758;2022-10-28T15:39:42;17.20;99.90
17879;DHT22;9065;51.050;13.758;2022-10-28T15:42:30;17.20;99.90
17879;DHT22;9065;51.050;13.758;2022-10-28T15:45:02;17.20;99.90
17879;DHT22;9065;51.050;13.758;2022-10-28T15:47:32;17.20;99.90
17879;DHT22;9065;51.050;13.758;2022-10-28T15:50:19;17.20;99.90
17879;DHT22;9065;51.050;13.758;2022-10-28T15:52:47;17.20;99.90
17879;DHT22;9065;51.050;13.758;2022-10-28T15:55:27;17.20;99.90
17879;DHT22;9065;51.050;13.758;2022-10-28T15:57:56;17.30;99.90
17879;DHT22;9065;51.050;13.758;2022-10-28T16:00:25;17.30;99.90
17879;DHT22;9065;51.050;13.758;2022-10-28T16:02:57;17.30;99.90
17879;DHT22;9065;51.050;13.758;2022-10-28T16:05:45;17.20;99.90
17879;DHT22;9065;51.050;13.758;2022-10-28T16:08:31;17.20;99.90
17879;DHT22;9065;51.050;13.758;2022-10-28T16:11:01;17.20;99.90
17879;DHT22;9065;51.050;13.758;2022-10-28T16:13:32;17.20;99.90
17879;DHT22;9065;51.050;13.758;2022-10-28T16:16:03;17.30;99.90
17879;DHT22;9065;51.050;13.758;2022-10-28T16:18:34;17.30;99.90
17879;DHT22;9065;51.050;13.758;2022-10-28T16:21:16;17.30;99.90
17879;DHT22;9065;51.050;13.758;2022-10-28T16:23:47;17.30;99.90
17879;DHT22;9065;51.050;13.758;2022-10-28T16:26:15;17.20;99.90
17879;DHT22;9065;51.050;13.758;2022-10-28T16:28:42;17.20;99.90
17879;DHT22;9065;51.050;13.758;2022-10-28T16:31:13;17.20;99.90